createdAt,value
2019-05-05T00:02:52.853Z,99.90
2019-05-05T00:05:57.945Z,99.90
2019-05-05T00:09:01.387Z,99.90
2019-05-05T00:12:06.545Z,99.90
2019-05-05T00:15:15.268Z,99.90
2019-05-05T00:18:20.370Z,99.90
2019-05-05T00:21:24.425Z,99.90
2019-05-05T00:24:27.901Z,99.90
2019-05-05T00:27:31.364Z,99.90
2019-05-05T00:30:34.785Z,99.90
2019-05-05T00:33:38.506Z,99.90
2019-05-05T00:36:41.977Z,99.90
2019-05-05T00:39:45.421Z,99.90
2019-05-05T00:42:48.865Z,99.90
2019-05-05T00:45:55.647Z,99.90
2019-05-05T00:48:59.261Z,99.90
2019-05-05T00:52:04.941Z,99.90
2019-05-05T00:55:08.213Z,99.90
2019-05-05T00:58:11.646Z,99.90
2019-05-05T01:01:16.737Z,99.90
2019-05-05T01:04:21.818Z,99.90
2019-05-05T01:07:25.263Z,99.90
2019-05-05T01:10:28.730Z,99.90
2019-05-05T01:13:32.193Z,99.90
2019-05-05T01:16:35.637Z,99.90
2019-05-05T01:19:39.090Z,99.90
2019-05-05T01:22:44.693Z,99.90
2019-05-05T01:25:48.777Z,99.90
2019-05-05T01:28:52.465Z,99.90
2019-05-05T01:31:57.783Z,99.90
2019-05-05T01:35:01.255Z,99.90
2019-05-05T01:38:21.385Z,99.90
2019-05-05T01:41:29.297Z,99.90
2019-05-05T01:44:32.735Z,99.90
2019-05-05T01:47:36.206Z,99.90
2019-05-05T01:50:39.657Z,99.90
2019-05-05T01:53:44.328Z,99.90
2019-05-05T01:56:48.310Z,99.90
2019-05-05T01:59:52.130Z,99.90
2019-05-05T02:02:55.569Z,99.90
2019-05-05T02:05:59.030Z,99.90
2019-05-05T02:09:02.483Z,99.90
2019-05-05T02:12:05.976Z,99.90
2019-05-05T02:15:09.566Z,99.90
2019-05-05T02:18:14.803Z,99.90
2019-05-05T02:21:18.182Z,99.90
2019-05-05T02:24:21.619Z,99.90
2019-05-05T02:27:25.395Z,99.90
2019-05-05T02:30:30.530Z,99.90
2019-05-05T02:33:35.313Z,99.90
2019-05-05T02:36:39.043Z,99.90
2019-05-05T02:40:04.334Z,99.90
2019-05-05T02:43:08.530Z,99.90
2019-05-05T02:46:25.566Z,99.90
2019-05-05T02:49:30.039Z,99.90
2019-05-05T02:52:34.692Z,99.90
2019-05-05T02:55:38.526Z,99.90
2019-05-05T02:58:44.398Z,99.90
2019-05-05T03:01:53.844Z,99.90
2019-05-05T03:04:57.542Z,99.90
2019-05-05T03:08:01.832Z,99.90
2019-05-05T03:11:05.797Z,99.90
2019-05-05T03:14:14.203Z,99.90
2019-05-05T03:17:17.743Z,99.90
2019-05-05T03:20:21.214Z,99.90
2019-05-05T03:23:24.709Z,99.90
2019-05-05T03:26:29.341Z,99.90
2019-05-05T03:29:33.569Z,99.90
2019-05-05T03:32:37.249Z,99.90
2019-05-05T03:35:41.142Z,99.90
2019-05-05T03:38:45.728Z,99.90
2019-05-05T03:41:56.840Z,99.90
2019-05-05T03:45:05.303Z,99.90
2019-05-05T03:48:08.841Z,99.90
2019-05-05T03:51:18.767Z,99.90
2019-05-05T03:54:18.366Z,99.90
2019-05-05T03:57:22.096Z,99.90
2019-05-05T04:00:45.152Z,99.90
2019-05-05T04:03:48.591Z,99.90
2019-05-05T04:06:54.156Z,99.90
2019-05-05T04:09:57.654Z,99.90
2019-05-05T04:13:04.492Z,99.90
2019-05-05T04:16:09.075Z,99.90
2019-05-05T04:19:14.162Z,99.90
2019-05-05T04:22:17.608Z,99.90
2019-05-05T04:25:21.050Z,99.90
2019-05-05T04:28:24.505Z,99.90
2019-05-05T04:31:27.941Z,99.90
2019-05-05T04:34:31.403Z,99.90
2019-05-05T04:37:34.842Z,99.90
2019-05-05T04:40:38.294Z,99.90
2019-05-05T04:43:41.762Z,99.90
2019-05-05T04:46:46.833Z,99.90
2019-05-05T04:49:53.707Z,99.90
2019-05-05T04:52:58.769Z,99.90
2019-05-05T04:56:04.065Z,99.90
2019-05-05T04:59:07.414Z,99.90
2019-05-05T05:02:18.346Z,99.90
2019-05-05T05:05:24.415Z,99.90
2019-05-05T05:08:27.973Z,99.90
2019-05-05T05:11:33.178Z,99.90
2019-05-05T05:14:36.626Z,99.90
2019-05-05T05:17:41.734Z,99.90
2019-05-05T05:20:45.959Z,99.90
2019-05-05T05:23:49.414Z,99.90
2019-05-05T05:26:52.903Z,99.90
2019-05-05T05:29:56.338Z,99.90
2019-05-05T05:32:59.795Z,99.90
2019-05-05T05:36:04.037Z,99.90
2019-05-05T05:39:09.730Z,99.90
2019-05-05T05:42:13.729Z,99.90
2019-05-05T05:45:35.360Z,94.70
2019-05-05T05:48:40.490Z,85.70
2019-05-05T05:51:44.715Z,75.30
2019-05-05T05:54:48.287Z,70.10
2019-05-05T05:57:51.753Z,64.40
2019-05-05T06:00:56.970Z,61.60
2019-05-05T06:04:00.410Z,58.40
2019-05-05T06:07:04.186Z,55.10
2019-05-05T06:10:21.108Z,53.00
2019-05-05T06:13:15.331Z,52.80
2019-05-05T06:16:18.516Z,51.40
2019-05-05T06:19:21.997Z,51.30
2019-05-05T06:22:29.309Z,50.20
2019-05-05T06:25:30.641Z,51.60
2019-05-05T06:28:34.312Z,52.70
2019-05-05T06:31:37.936Z,53.00
2019-05-05T06:34:41.377Z,52.20
2019-05-05T06:37:54.506Z,50.90
2019-05-05T06:40:59.783Z,50.40
2019-05-05T06:44:17.074Z,48.50
2019-05-05T06:47:23.599Z,46.90
2019-05-05T06:50:26.969Z,46.70
2019-05-05T06:53:30.445Z,48.40
2019-05-05T06:56:34.263Z,50.90
2019-05-05T06:59:37.839Z,53.10
2019-05-05T07:02:41.269Z,54.80
2019-05-05T07:05:44.779Z,54.30
2019-05-05T07:08:48.254Z,53.10
2019-05-05T07:11:53.939Z,49.70
2019-05-05T07:14:56.901Z,50.70
2019-05-05T07:18:00.342Z,50.50
2019-05-05T07:21:03.940Z,51.70
2019-05-05T07:24:07.937Z,54.20
2019-05-05T07:27:13.653Z,57.80
2019-05-05T07:30:16.698Z,61.90
2019-05-05T07:33:20.173Z,66.60
2019-05-05T07:36:44.434Z,75.30
2019-05-05T07:39:48.101Z,93.60
2019-05-05T07:42:51.589Z,99.90
2019-05-05T07:45:55.030Z,99.90
2019-05-05T07:48:58.497Z,99.90
2019-05-05T07:52:03.914Z,99.90
2019-05-05T07:55:07.118Z,99.90
2019-05-05T07:58:10.557Z,99.90
2019-05-05T08:01:14.257Z,99.90
2019-05-05T08:04:17.838Z,99.90
2019-05-05T08:07:21.326Z,99.90
2019-05-05T08:10:24.763Z,99.90
2019-05-05T08:13:28.233Z,99.90
2019-05-05T08:16:33.725Z,99.90
2019-05-05T08:19:55.274Z,99.90
2019-05-05T08:22:58.709Z,99.90
2019-05-05T08:26:09.627Z,99.90
2019-05-05T08:29:29.793Z,99.90
2019-05-05T08:32:35.688Z,99.90
2019-05-05T08:35:39.329Z,96.70
2019-05-05T08:38:44.144Z,94.40
2019-05-05T08:41:47.732Z,94.00
2019-05-05T08:44:51.222Z,94.00
2019-05-05T08:47:54.722Z,93.80
2019-05-05T08:50:58.201Z,94.70
2019-05-05T08:54:03.785Z,97.80
2019-05-05T08:57:06.885Z,99.30
2019-05-05T09:00:10.790Z,99.90
2019-05-05T09:03:14.262Z,99.90
2019-05-05T09:06:17.778Z,99.90
2019-05-05T09:09:21.213Z,98.40
2019-05-05T09:12:24.762Z,97.40
2019-05-05T09:15:28.204Z,94.10
2019-05-05T09:18:33.782Z,93.90
2019-05-05T09:21:36.844Z,94.00
2019-05-05T09:24:54.026Z,91.80
2019-05-05T09:27:59.130Z,91.60
2019-05-05T09:31:04.142Z,93.10
2019-05-05T09:34:07.849Z,93.60
2019-05-05T09:37:11.292Z,95.40
2019-05-05T09:40:17.830Z,94.40
2019-05-05T09:43:21.294Z,93.60
2019-05-05T09:46:24.754Z,93.50
2019-05-05T09:49:28.194Z,94.20
2019-05-05T09:52:33.665Z,96.00
2019-05-05T09:55:36.812Z,96.80
2019-05-05T09:58:40.274Z,98.80
2019-05-05T10:01:44.510Z,99.90
2019-05-05T10:04:48.070Z,99.90
2019-05-05T10:07:51.504Z,99.90
2019-05-05T10:10:54.969Z,99.90
2019-05-05T10:13:58.450Z,99.90
2019-05-05T10:17:01.891Z,99.90
2019-05-05T10:20:07.175Z,99.90
2019-05-05T10:23:10.624Z,99.90
2019-05-05T10:26:14.914Z,99.90
2019-05-05T10:29:18.612Z,99.90
2019-05-05T10:32:24.330Z,99.90
2019-05-05T10:35:27.261Z,99.90
2019-05-05T10:38:30.741Z,99.70
2019-05-05T10:41:34.181Z,99.30
2019-05-05T10:44:37.644Z,98.20
2019-05-05T10:47:41.106Z,99.20
2019-05-05T10:50:44.602Z,99.10
2019-05-05T10:53:48.107Z,96.40
2019-05-05T10:56:51.547Z,96.70
2019-05-05T10:59:55.009Z,95.80
2019-05-05T11:02:59.515Z,92.10
2019-05-05T11:06:04.572Z,92.60
2019-05-05T11:09:08.896Z,89.30
2019-05-05T11:12:14.436Z,93.50
2019-05-05T11:15:18.051Z,85.50
2019-05-05T11:18:23.717Z,83.40
2019-05-05T11:21:26.693Z,82.20
2019-05-05T11:24:30.157Z,82.20
2019-05-05T11:27:34.511Z,79.70
2019-05-05T11:30:43.702Z,80.80
2019-05-05T11:33:48.786Z,83.40
2019-05-05T11:37:00.232Z,84.00
2019-05-05T11:40:04.285Z,84.70
2019-05-05T11:43:07.878Z,84.40
2019-05-05T11:46:11.356Z,86.70
2019-05-05T11:49:14.802Z,85.50
2019-05-05T11:52:18.261Z,82.30
2019-05-05T11:55:21.728Z,82.20
2019-05-05T11:58:25.244Z,82.30
2019-05-05T12:01:28.766Z,77.80
2019-05-05T12:04:32.234Z,77.80
2019-05-05T12:07:35.718Z,78.10
2019-05-05T12:10:54.206Z,78.00
2019-05-05T12:13:57.862Z,76.70
2019-05-05T12:17:01.300Z,78.80
2019-05-05T12:20:09.550Z,78.60
2019-05-05T12:23:12.982Z,77.90
2019-05-05T12:26:27.005Z,77.90
2019-05-05T12:29:30.541Z,77.70
2019-05-05T12:32:34.783Z,77.10
2019-05-05T12:35:38.429Z,75.70
2019-05-05T12:38:43.796Z,76.40
2019-05-05T12:41:47.081Z,76.80
2019-05-05T12:44:53.728Z,75.70
2019-05-05T12:48:14.169Z,76.20
2019-05-05T12:51:17.680Z,73.80
2019-05-05T12:54:21.142Z,70.60
2019-05-05T12:57:24.685Z,73.40
2019-05-05T13:00:29.867Z,73.60
2019-05-05T13:03:34.619Z,72.90
2019-05-05T13:06:38.733Z,72.00
2019-05-05T13:09:44.010Z,72.80
2019-05-05T13:12:47.387Z,75.20
2019-05-05T13:15:50.826Z,73.10
2019-05-05T13:18:54.293Z,72.10
2019-05-05T13:21:59.450Z,75.30
2019-05-05T13:25:19.437Z,74.40
2019-05-05T13:28:23.833Z,74.20
2019-05-05T13:31:27.423Z,74.80
2019-05-05T13:34:30.874Z,74.60
2019-05-05T13:37:34.333Z,71.30
2019-05-05T13:40:37.794Z,74.80
2019-05-05T13:43:41.331Z,77.40
2019-05-05T13:46:44.803Z,78.70
2019-05-05T13:49:48.938Z,79.30
2019-05-05T13:52:52.393Z,83.30
2019-05-05T13:56:08.824Z,80.30
2019-05-05T13:59:01.093Z,78.60
2019-05-05T14:02:04.551Z,77.20
2019-05-05T14:05:08.098Z,77.00
2019-05-05T14:08:11.603Z,78.60
2019-05-05T14:11:15.053Z,80.70
2019-05-05T14:14:18.509Z,79.30
2019-05-05T14:17:24.034Z,76.80
2019-05-05T14:20:27.473Z,80.80
2019-05-05T14:23:34.414Z,78.30
2019-05-05T14:26:37.739Z,80.40
2019-05-05T14:29:48.832Z,79.10
2019-05-05T14:32:54.347Z,80.00
2019-05-05T14:36:01.826Z,79.70
2019-05-05T14:39:09.041Z,80.80
2019-05-05T14:42:14.617Z,81.00
2019-05-05T14:45:17.939Z,79.20
2019-05-05T14:48:21.389Z,80.50
2019-05-05T14:51:24.843Z,78.90
2019-05-05T14:54:28.321Z,78.30
2019-05-05T14:57:33.464Z,79.10
2019-05-05T15:00:39.369Z,82.10
2019-05-05T15:03:42.111Z,81.80
2019-05-05T15:07:05.747Z,82.00
2019-05-05T15:10:24.046Z,83.00
2019-05-05T15:13:27.674Z,84.40
2019-05-05T15:16:31.119Z,84.00
2019-05-05T15:19:34.577Z,83.70
2019-05-05T15:22:38.044Z,82.60
2019-05-05T15:25:41.514Z,82.90
2019-05-05T15:28:57.739Z,82.70
2019-05-05T15:31:50.135Z,83.30
2019-05-05T15:34:54.611Z,84.60
2019-05-05T15:37:58.326Z,87.70
2019-05-05T15:41:03.801Z,89.20
2019-05-05T15:44:06.957Z,90.10
2019-05-05T15:47:10.425Z,90.20
2019-05-05T15:50:14.396Z,90.70
2019-05-05T15:53:17.886Z,91.70
2019-05-05T15:56:21.331Z,91.40
2019-05-05T15:59:24.796Z,91.70
2019-05-05T16:02:28.237Z,91.70
2019-05-05T16:05:31.712Z,92.40
2019-05-05T16:08:35.149Z,93.30
2019-05-05T16:11:38.617Z,93.90
2019-05-05T16:14:44.531Z,97.10
2019-05-05T16:17:50.527Z,99.90
2019-05-05T16:20:58.321Z,99.90
2019-05-05T16:24:03.604Z,99.90
2019-05-05T16:27:18.783Z,99.90
2019-05-05T16:30:14.771Z,99.90
2019-05-05T16:33:18.239Z,99.90
2019-05-05T16:36:21.676Z,99.90
2019-05-05T16:39:25.990Z,99.90
2019-05-05T16:42:29.461Z,99.90
2019-05-05T16:45:34.013Z,99.90
2019-05-05T16:48:37.729Z,99.90
2019-05-05T16:51:43.894Z,99.90
2019-05-05T16:55:07.058Z,99.90
2019-05-05T16:58:10.587Z,99.90
2019-05-05T17:01:15.928Z,99.90
2019-05-05T17:04:19.362Z,99.90
2019-05-05T17:07:23.772Z,99.90
2019-05-05T17:10:27.350Z,99.90
2019-05-05T17:13:35.173Z,99.90
2019-05-05T17:16:56.802Z,99.90
2019-05-05T17:20:04.835Z,99.90
2019-05-05T17:23:09.902Z,99.90
2019-05-05T17:26:14.256Z,99.90
2019-05-05T17:29:18.009Z,99.90
2019-05-05T17:32:21.448Z,99.90
2019-05-05T17:35:24.930Z,99.90
2019-05-05T17:38:28.361Z,99.90
2019-05-05T17:41:45.267Z,99.90
2019-05-05T17:44:52.998Z,99.90
2019-05-05T17:48:04.531Z,99.90
2019-05-05T17:51:18.581Z,99.90
2019-05-05T17:54:26.610Z,99.90
2019-05-05T17:57:30.048Z,99.90
2019-05-05T18:00:35.146Z,99.90
2019-05-05T18:03:38.585Z,99.90
2019-05-05T18:06:49.613Z,99.90
2019-05-05T18:09:57.713Z,99.90
2019-05-05T18:13:03.664Z,99.90
2019-05-05T18:16:07.325Z,99.90
2019-05-05T18:19:10.792Z,99.90
2019-05-05T18:22:14.266Z,99.90
2019-05-05T18:25:17.730Z,99.90
2019-05-05T18:28:21.197Z,99.90
2019-05-05T18:31:24.633Z,99.90
2019-05-05T18:34:28.088Z,99.90
2019-05-05T18:37:31.530Z,99.90
2019-05-05T18:40:35.003Z,99.90
2019-05-05T18:43:43.424Z,99.90
2019-05-05T18:46:48.624Z,99.90
2019-05-05T18:49:53.823Z,99.90
2019-05-05T18:52:57.268Z,99.90
2019-05-05T18:56:00.699Z,99.90
2019-05-05T18:59:06.576Z,99.90
2019-05-05T19:02:17.337Z,99.90
2019-05-05T19:05:23.704Z,99.90
2019-05-05T19:08:35.199Z,99.90
2019-05-05T19:11:38.653Z,99.90
2019-05-05T19:14:44.132Z,99.90
2019-05-05T19:17:47.287Z,99.90
2019-05-05T19:20:54.190Z,99.90
2019-05-05T19:23:57.542Z,99.90
2019-05-05T19:27:03.795Z,99.90
2019-05-05T19:30:07.309Z,99.90
2019-05-05T19:33:10.791Z,99.90
2019-05-05T19:36:14.227Z,99.90
2019-05-05T19:39:17.806Z,99.90
2019-05-05T19:42:21.234Z,99.90
2019-05-05T19:45:26.719Z,99.90
2019-05-05T19:48:29.877Z,99.90
2019-05-05T19:51:33.953Z,99.90
2019-05-05T19:54:38.530Z,99.90
2019-05-05T19:57:44.399Z,99.90
2019-05-05T20:00:47.185Z,99.90
2019-05-05T20:03:50.699Z,99.90
2019-05-05T20:06:54.802Z,99.90
2019-05-05T20:09:58.386Z,99.90
2019-05-05T20:13:01.857Z,99.90
2019-05-05T20:16:09.625Z,99.90
2019-05-05T20:19:13.605Z,99.90
2019-05-05T20:22:17.101Z,99.90
2019-05-05T20:25:20.572Z,99.90
2019-05-05T20:28:24.134Z,99.90
2019-05-05T20:31:27.657Z,99.90
2019-05-05T20:34:34.009Z,99.90
2019-05-05T20:37:48.099Z,99.90
2019-05-05T20:41:11.297Z,99.90
2019-05-05T20:44:14.757Z,99.90
2019-05-05T20:47:18.198Z,99.90
2019-05-05T20:50:21.653Z,99.90
2019-05-05T20:53:25.095Z,99.90
2019-05-05T20:56:28.569Z,99.90
2019-05-05T20:59:34.101Z,99.90
2019-05-05T21:02:37.212Z,99.90
2019-05-05T21:05:40.650Z,99.90
2019-05-05T21:08:44.288Z,99.90
2019-05-05T21:11:47.829Z,99.90
2019-05-05T21:14:51.301Z,99.90
2019-05-05T21:17:54.729Z,99.90
2019-05-05T21:20:59.831Z,99.90
2019-05-05T21:24:04.223Z,99.90
2019-05-05T21:27:07.769Z,99.90
2019-05-05T21:30:11.238Z,99.90
2019-05-05T21:33:14.686Z,99.90
2019-05-05T21:36:18.137Z,99.90
2019-05-05T21:39:21.574Z,99.90
2019-05-05T21:42:25.042Z,99.90
2019-05-05T21:45:28.478Z,99.90
2019-05-05T21:48:33.955Z,99.90
2019-05-05T21:51:41.707Z,99.90
2019-05-05T21:54:46.827Z,99.90
2019-05-05T21:58:04.407Z,99.90
2019-05-05T22:01:11.300Z,99.90
2019-05-05T22:04:15.144Z,99.90
2019-05-05T22:07:18.692Z,99.90
2019-05-05T22:10:24.361Z,99.90
2019-05-05T22:13:27.314Z,99.90
2019-05-05T22:16:30.746Z,99.90
2019-05-05T22:19:41.758Z,99.90
2019-05-05T22:22:45.767Z,99.90
2019-05-05T22:25:49.230Z,99.90
2019-05-05T22:28:54.113Z,99.90
2019-05-05T22:31:57.730Z,99.90
2019-05-05T22:35:01.166Z,99.90
2019-05-05T22:38:06.094Z,99.90
2019-05-05T22:41:09.746Z,99.90
2019-05-05T22:44:13.890Z,99.90
2019-05-05T22:47:17.628Z,99.90
2019-05-05T22:50:21.189Z,99.90
2019-05-05T22:53:24.659Z,99.90
2019-05-05T22:56:28.162Z,99.90
2019-05-05T22:59:31.706Z,99.90
2019-05-05T23:02:36.793Z,99.90
2019-05-05T23:05:54.675Z,99.90
2019-05-05T23:08:58.375Z,99.90
2019-05-05T23:12:04.059Z,99.90
2019-05-05T23:15:07.998Z,99.90
2019-05-05T23:18:19.331Z,99.90
2019-05-05T23:21:27.400Z,99.90
2019-05-05T23:24:45.262Z,99.90
2019-05-05T23:27:52.084Z,99.90
2019-05-05T23:30:55.558Z,99.90
2019-05-05T23:33:58.993Z,99.90
2019-05-05T23:37:04.310Z,99.90
2019-05-05T23:40:08.785Z,99.90
2019-05-05T23:43:13.920Z,99.90
2019-05-05T23:46:17.582Z,99.90
2019-05-05T23:49:21.041Z,99.90
2019-05-05T23:52:24.514Z,99.90
2019-05-05T23:55:27.949Z,99.90
2019-05-05T23:58:31.418Z,99.90
